Time;durP1;ratioP1;P1;durP2;ratioP2;P2;SDS_P1;SDS_P2;PMS_P1;PMS_P2;Temp;Humidity;BMP_temperature;BMP_pressure;BME280_temperature;BME280_humidity;BME280_pressure;Samples;Min_cycle;Max_cycle;Signal;HPM_P1;HPM_P2
2022/05/28 00:00:00;;;;;;;8.02;2.20;;;;;;;;;;4990725;28;20433;-73
2022/05/28 00:02:27;;;;;;;9.35;1.90;;;;;;;;;;4972058;28;20755;-74
2022/05/28 00:04:53;;;;;;;8.33;1.90;;;;;;;;;;4976425;28;20426;-74
2022/05/28 00:07:19;;;;;;;9.23;1.90;;;;;;;;;;4988581;28;20786;-73
2022/05/28 00:09:45;;;;;;;8.93;2.20;;;;;;;;;;4988055;28;20859;-73
2022/05/28 00:12:11;;;;;;;10.63;2.00;;;;;;;;;;4971277;28;20866;-73
2022/05/28 00:14:37;;;;;;;7.90;2.33;;;;;;;;;;4973210;28;20487;-72
2022/05/28 00:17:03;;;;;;;8.85;2.15;;;;;;;;;;4985841;28;20473;-72
2022/05/28 00:19:29;;;;;;;10.17;1.90;;;;;;;;;;4986642;28;20431;-72
2022/05/28 00:21:55;;;;;;;7.50;1.90;;;;;;;;;;4989600;28;20458;-73
2022/05/28 00:24:21;;;;;;;15.20;2.55;;;;;;;;;;4991164;28;20430;-73
2022/05/28 00:26:48;;;;;;;8.00;1.98;;;;;;;;;;4990001;28;20422;-73
2022/05/28 00:29:14;;;;;;;12.47;2.00;;;;;;;;;;4990214;28;21012;-73
2022/05/28 00:31:40;;;;;;;8.40;2.03;;;;;;;;;;4991528;28;20917;-72
2022/05/28 00:34:06;;;;;;;8.80;1.70;;;;;;;;;;4975340;28;20430;-73
2022/05/28 00:36:33;;;;;;;8.00;2.03;;;;;;;;;;4986294;28;20779;-74
2022/05/28 00:38:59;;;;;;;8.25;1.80;;;;;;;;;;4971759;28;20463;-73
2022/05/28 00:41:25;;;;;;;7.28;2.45;;;;;;;;;;4990486;28;20423;-73
2022/05/28 00:43:51;;;;;;;8.98;1.80;;;;;;;;;;4975808;28;20417;-73
2022/05/28 00:46:19;;;;;;;8.38;1.98;;;;;;;;;;4982141;28;20998;-74
2022/05/28 00:48:46;;;;;;;7.60;1.83;;;;;;;;;;4981070;28;20756;-73
2022/05/28 00:51:24;;;;;;;10.60;2.03;;;;;;;;;;4990270;28;20430;-73
2022/05/28 00:53:51;;;;;;;4.90;1.55;;;;;;;;;;4991448;28;20438;-73
2022/05/28 00:56:17;;;;;;;9.77;1.80;;;;;;;;;;4974527;28;20919;-73
2022/05/28 00:58:43;;;;;;;10.40;1.92;;;;;;;;;;4990020;28;20462;-73
2022/05/28 01:01:11;;;;;;;9.10;2.28;;;10.60;99.90;;;;;;4990740;28;20422;-73
2022/05/28 01:03:37;;;;;;;12.63;2.40;;;;;;;;;;4975685;28;20434;-72
2022/05/28 01:06:14;;;;;;;9.10;1.70;;;;;;;;;;4987290;28;20418;-71
2022/05/28 01:08:47;;;;;;;7.93;2.10;;;;;;;;;;4985167;28;20434;-73
2022/05/28 01:11:36;;;;;;;9.57;2.10;;;10.70;99.90;;;;;;4989836;28;20492;-72
2022/05/28 01:14:13;;;;;;;8.85;2.05;;;10.60;99.90;;;;;;4975475;28;20460;-72
2022/05/28 01:16:44;;;;;;;10.95;2.58;;;;;;;;;;4988823;28;20443;-72
2022/05/28 01:19:19;;;;;;;9.93;2.20;;;;;;;;;;4985329;28;20770;-72
2022/05/28 01:22:01;;;;;;;10.52;2.28;;;;;;;;;;4968758;28;20514;-72
2022/05/28 01:24:46;;;;;;;9.45;2.10;;;;;;;;;;4990637;28;20806;-72
2022/05/28 01:27:20;;;;;;;10.70;2.03;;;10.20;99.90;;;;;;4971662;28;20430;-72
2022/05/28 01:29:53;;;;;;;10.27;2.37;;;;;;;;;;4990053;28;20426;-73
2022/05/28 01:32:20;;;;;;;10.90;2.53;;;;;;;;;;4968071;28;20432;-72
2022/05/28 01:34:47;;;;;;;10.75;2.30;;;;;;;;;;4965253;28;20997;-73
2022/05/28 01:37:13;;;;;;;7.97;1.90;;;;;;;;;;4950532;28;20434;-72
2022/05/28 01:39:40;;;;;;;9.32;1.83;;;;;;;;;;4988332;28;20422;-72
2022/05/28 01:42:08;;;;;;;11.00;2.00;;;;;;;;;;4986954;28;20434;-72
2022/05/28 01:44:36;;;;;;;10.80;2.10;;;10.40;99.90;;;;;;4965224;28;20440;-72
2022/05/28 01:47:02;;;;;;;13.40;2.38;;;;;;;;;;4988554;28;20468;-72
2022/05/28 01:49:29;;;;;;;10.15;1.95;;;10.00;99.90;;;;;;4987102;28;20841;-71
2022/05/28 01:51:58;;;;;;;9.73;2.10;;;10.20;99.90;;;;;;4986710;28;20423;-72
2022/05/28 01:54:28;;;;;;;9.48;1.88;;;10.40;99.90;;;;;;4968710;28;20456;-72
2022/05/28 01:56:55;;;;;;;7.45;1.90;;;;;;;;;;4986898;28;20430;-73
2022/05/28 01:59:29;;;;;;;7.70;1.70;;;;;;;;;;4990088;28;20464;-72
2022/05/28 02:01:56;;;;;;;12.02;2.22;;;;;;;;;;4983950;28;20428;-72
2022/05/28 02:04:22;;;;;;;10.48;2.10;;;;;;;;;;4985778;28;20553;-71
2022/05/28 02:06:48;;;;;;;13.63;1.90;;;;;;;;;;4988153;28;20526;-72
2022/05/28 02:09:18;;;;;;;10.10;2.20;;;10.20;99.90;;;;;;4965969;28;20439;-72
2022/05/28 02:11:50;;;;;;;6.43;2.00;;;;;;;;;;4986920;28;20418;-71
2022/05/28 02:14:17;;;;;;;12.18;1.95;;;;;;;;;;4987044;28;20430;-72
2022/05/28 02:17:01;;;;;;;9.70;2.40;;;;;;;;;;4986101;28;20432;-71
2022/05/28 02:19:49;;;;;;;9.00;2.13;;;10.30;99.90;;;;;;4975195;28;20434;-72
2022/05/28 02:22:18;;;;;;;9.53;2.27;;;;;;;;;;4964436;28;20974;-72
2022/05/28 02:24:51;;;;;;;13.45;2.40;;;;;;;;;;4992813;28;20410;-73
2022/05/28 02:27:20;;;;;;;10.35;2.15;;;10.20;99.90;;;;;;4988263;28;20833;-72
2022/05/28 02:29:46;;;;;;;11.30;2.22;;;;;;;;;;4989840;28;20424;-72
2022/05/28 02:32:21;;;;;;;9.10;2.40;;;10.10;99.90;;;;;;4982905;28;20426;-72
2022/05/28 02:34:50;;;;;;;11.02;1.90;;;;;;;;;;4983392;28;20398;-73
2022/05/28 02:37:18;;;;;;;10.02;2.20;;;10.10;99.90;;;;;;4983659;28;20430;-72
2022/05/28 02:39:44;;;;;;;11.70;2.47;;;;;;;;;;4961610;28;20517;-73
2022/05/28 02:42:10;;;;;;;11.38;2.08;;;;;;;;;;4971429;28;20433;-73
2022/05/28 02:44:36;;;;;;;10.03;2.60;;;;;;;;;;4987239;28;20464;-71
2022/05/28 02:47:03;;;;;;;9.52;2.28;;;;;;;;;;4970098;28;20437;-73
2022/05/28 02:49:29;;;;;;;9.63;2.05;;;;;;;;;;4990616;28;20434;-72
2022/05/28 02:51:55;;;;;;;11.98;2.60;;;;;;;;;;4988428;28;20481;-72
2022/05/28 02:54:22;;;;;;;11.85;2.40;;;;;;;;;;4957604;28;20434;-72
2022/05/28 02:56:48;;;;;;;10.82;2.45;;;;;;;;;;4973105;28;20548;-72
2022/05/28 02:59:15;;;;;;;11.40;2.50;;;;;;;;;;4976344;28;20434;-72
2022/05/28 03:01:41;;;;;;;11.10;2.75;;;;;;;;;;4984704;28;20440;-72
2022/05/28 03:04:08;;;;;;;12.38;2.47;;;10.10;99.90;;;;;;4975887;28;20480;-73
2022/05/28 03:06:38;;;;;;;12.45;2.67;;;;;;;;;;4988893;28;20436;-72
2022/05/28 03:09:05;;;;;;;11.60;2.63;;;;;;;;;;4992982;28;20909;-72
2022/05/28 03:11:32;;;;;;;16.55;3.45;;;;;;;;;;4973730;28;20407;-72
2022/05/28 03:13:58;;;;;;;11.77;2.78;;;;;;;;;;4989921;28;20434;-73
2022/05/28 03:16:24;;;;;;;15.47;2.70;;;;;;;;;;4968187;28;20471;-73
2022/05/28 03:18:50;;;;;;;19.20;3.28;;;;;;;;;;4989868;28;20932;-72
2022/05/28 03:21:16;;;;;;;14.50;2.75;;;;;;;;;;4975988;28;20422;-71
2022/05/28 03:23:47;;;;;;;19.87;3.17;;;;;;;;;;4990831;28;20582;-72
2022/05/28 03:26:19;;;;;;;15.77;3.05;;;;;;;;;;4975063;28;20437;-72
2022/05/28 03:28:45;;;;;;;14.90;3.08;;;;;;;;;;4989267;28;20450;-72
2022/05/28 03:31:12;;;;;;;17.52;3.20;;;;;;;;;;4990035;28;20968;-72
2022/05/28 03:33:38;;;;;;;15.45;3.33;;;10.20;99.90;;;;;;4974967;28;20445;-71
2022/05/28 03:36:04;;;;;;;15.10;3.72;;;;;;;;;;4991999;28;20423;-72
2022/05/28 03:38:31;;;;;;;13.37;2.80;;;;;;;;;;4981375;28;20506;-71
2022/05/28 03:40:58;;;;;;;10.18;2.75;;;;;;;;;;4991955;28;20512;-72
2022/05/28 03:43:25;;;;;;;11.52;2.50;;;;;;;;;;4988762;28;20426;-72
2022/05/28 03:45:51;;;;;;;10.63;2.80;;;;;;;;;;4986069;28;20476;-72
2022/05/28 03:48:17;;;;;;;13.98;2.88;;;;;;;;;;4989173;28;20462;-72
2022/05/28 03:50:43;;;;;;;15.57;3.30;;;;;;;;;;4974390;28;20599;-72
2022/05/28 03:53:09;;;;;;;13.55;3.35;;;;;;;;;;4987385;28;20884;-72
2022/05/28 03:55:37;;;;;;;12.93;2.65;;;10.50;99.90;;;;;;4967995;28;20430;-72
2022/05/28 03:58:03;;;;;;;14.32;3.25;;;;;;;;;;4988728;28;20430;-72
2022/05/28 04:00:29;;;;;;;11.77;2.83;;;;;;;;;;4984845;28;20408;-72
2022/05/28 04:02:55;;;;;;;11.38;2.65;;;;;;;;;;4972821;28;20558;-72
2022/05/28 04:05:22;;;;;;;13.45;3.05;;;;;;;;;;4991253;28;20438;-73
2022/05/28 04:07:49;;;;;;;14.75;3.03;;;;;;;;;;4969804;28;20521;-72
2022/05/28 04:10:16;;;;;;;14.18;2.90;;;;;;;;;;4977141;28;20430;-72
2022/05/28 04:12:42;;;;;;;19.33;3.10;;;;;;;;;;4989460;28;20929;-73
2022/05/28 04:15:09;;;;;;;16.88;3.58;;;;;;;;;;4985097;28;20767;-72
2022/05/28 04:17:35;;;;;;;12.63;3.10;;;;;;;;;;4966231;28;20448;-73
2022/05/28 04:20:01;;;;;;;12.30;3.07;;;;;;;;;;4970364;28;20490;-72
2022/05/28 04:22:27;;;;;;;17.92;3.38;;;;;;;;;;4985739;28;20434;-72
2022/05/28 04:24:53;;;;;;;17.42;3.30;;;;;;;;;;4985987;28;20945;-71
2022/05/28 04:27:19;;;;;;;12.43;2.97;;;;;;;;;;4990847;28;20774;-72
2022/05/28 04:29:45;;;;;;;12.63;3.00;;;;;;;;;;4989203;28;20473;-74
2022/05/28 04:32:12;;;;;;;15.95;3.25;;;;;;;;;;4962611;28;20433;-74
2022/05/28 04:34:38;;;;;;;14.18;3.20;;;;;;;;;;4967018;28;20824;-74
2022/05/28 04:37:04;;;;;;;14.38;3.00;;;;;;;;;;4972609;28;20428;-72
2022/05/28 04:39:30;;;;;;;13.20;2.60;;;;;;;;;;4990154;28;20513;-71
2022/05/28 04:41:56;;;;;;;10.77;2.85;;;;;;;;;;4989636;28;20430;-71
2022/05/28 04:44:22;;;;;;;12.63;3.03;;;;;;;;;;4982331;28;20448;-73
2022/05/28 04:46:48;;;;;;;13.20;3.27;;;;;;;;;;4971421;28;20760;-73
2022/05/28 04:49:14;;;;;;;12.65;3.40;;;;;;;;;;4971950;28;20946;-72
2022/05/28 04:51:41;;;;;;;15.00;3.00;;;;;;;;;;4970171;28;20434;-74
2022/05/28 04:54:07;;;;;;;15.43;3.15;;;;;;;;;;4986249;28;20422;-73
2022/05/28 04:56:33;;;;;;;14.75;3.50;;;;;;;;;;4971456;28;20408;-74
2022/05/28 04:59:00;;;;;;;12.48;3.10;;;;;;;;;;4985861;28;20771;-74
2022/05/28 05:01:26;;;;;;;15.43;2.95;;;;;;;;;;4982263;28;20427;-73
2022/05/28 05:03:52;;;;;;;12.18;3.00;;;;;;;;;;4982485;28;20427;-73
2022/05/28 05:06:18;;;;;;;13.85;3.50;;;;;;;;;;4972185;28;20488;-74
2022/05/28 05:08:45;;;;;;;13.68;3.00;;;;;;;;;;4986793;28;20437;-73
2022/05/28 05:11:12;;;;;;;16.33;3.42;;;;;;;;;;4990906;28;20452;-74
2022/05/28 05:13:38;;;;;;;14.57;3.17;;;;;;;;;;4980527;28;20438;-72
2022/05/28 05:16:11;;;;;;;15.20;3.45;;;;;;;;;;4988268;28;20759;-74
2022/05/28 05:18:38;;;;;;;14.38;3.50;;;;;;;;;;4969763;28;20423;-73
2022/05/28 05:21:04;;;;;;;13.50;3.53;;;;;;;;;;4962461;28;20434;-73
2022/05/28 05:23:30;;;;;;;18.05;3.75;;;;;;;;;;4986045;28;20783;-74
2022/05/28 05:25:56;;;;;;;16.55;3.90;;;;;;;;;;4985436;28;20430;-74
2022/05/28 05:28:22;;;;;;;19.67;4.35;;;;;;;;;;4971601;28;20928;-80
2022/05/28 05:30:48;;;;;;;17.83;3.85;;;;;;;;;;4988783;28;20434;-80
2022/05/28 05:33:14;;;;;;;14.20;3.47;;;;;;;;;;4975104;28;20434;-80
2022/05/28 05:35:40;;;;;;;16.58;2.85;;;;;;;;;;4971971;28;20467;-80
2022/05/28 05:38:08;;;;;;;10.05;2.70;;;;;;;;;;4984024;28;20426;-79
2022/05/28 05:40:35;;;;;;;12.63;3.30;;;;;;;;;;4988067;28;20424;-78
2022/05/28 05:43:01;;;;;;;11.87;3.07;;;;;;;;;;4986635;28;20600;-77
2022/05/28 05:45:27;;;;;;;10.88;3.00;;;;;;;;;;4984002;28;20441;-76
2022/05/28 05:47:53;;;;;;;10.95;2.75;;;;;;;;;;4982514;28;20448;-76
2022/05/28 05:50:19;;;;;;;8.13;2.70;;;;;;;;;;4989669;28;20756;-76
2022/05/28 05:52:46;;;;;;;6.55;2.55;;;;;;;;;;4989653;28;20440;-76
2022/05/28 05:55:12;;;;;;;7.32;2.25;;;;;;;;;;4989372;28;20926;-75
2022/05/28 05:57:38;;;;;;;10.45;2.53;;;;;;;;;;4992678;28;20425;-75
2022/05/28 06:00:05;;;;;;;9.40;2.30;;;;;;;;;;4977863;28;20434;-75
2022/05/28 06:02:31;;;;;;;9.73;2.45;;;;;;;;;;4975236;28;20426;-76
2022/05/28 06:04:58;;;;;;;8.43;2.35;;;;;;;;;;4993437;28;20518;-76
2022/05/28 06:07:24;;;;;;;8.73;2.42;;;;;;;;;;4970098;28;20428;-76
2022/05/28 06:09:50;;;;;;;8.10;2.47;;;;;;;;;;4959082;28;20439;-76
2022/05/28 06:12:16;;;;;;;8.00;2.53;;;;;;;;;;4984425;28;20462;-75
2022/05/28 06:14:42;;;;;;;9.68;2.35;;;;;;;;;;4991152;28;20425;-75
2022/05/28 06:17:08;;;;;;;11.05;2.60;;;10.70;99.90;;;;;;4989292;28;20910;-75
2022/05/28 06:19:34;;;;;;;12.48;3.00;;;;;;;;;;4977723;28;20504;-75
2022/05/28 06:22:01;;;;;;;11.27;2.97;;;;;;;;;;4991774;28;20941;-75
2022/05/28 06:24:27;;;;;;;12.80;3.50;;;;;;;;;;4993301;28;20522;-75
2022/05/28 06:26:53;;;;;;;10.95;3.05;;;;;;;;;;4992653;28;20426;-75
2022/05/28 06:29:20;;;;;;;14.77;3.88;;;;;;;;;;4986713;28;20465;-74
2022/05/28 06:31:46;;;;;;;13.82;3.30;;;;;;;;;;4992189;28;20450;-75
2022/05/28 06:34:14;;;;;;;18.27;4.17;;;11.70;99.90;;;;;;4990249;28;20434;-75
2022/05/28 06:36:40;;;;;;;14.35;3.67;;;;;;;;;;4992376;28;20426;-75
2022/05/28 06:39:06;;;;;;;15.38;3.58;;;;;;;;;;4987568;28;20434;-75
2022/05/28 06:41:32;;;;;;;18.17;4.13;;;;;;;;;;4991035;28;20434;-77
2022/05/28 06:43:59;;;;;;;13.40;3.20;;;;;;;;;;4993767;28;20425;-78
2022/05/28 06:46:26;;;;;;;13.37;3.30;;;;;;;;;;4972449;28;20916;-78
2022/05/28 06:48:52;;;;;;;11.30;2.80;;;;;;;;;;4974583;28;20509;-76
2022/05/28 06:51:18;;;;;;;12.68;3.42;;;;;;;;;;4991892;28;20822;-76
2022/05/28 06:53:47;;;;;;;14.88;3.83;;;10.20;99.90;;;;;;4994213;28;20406;-75
2022/05/28 06:56:13;;;;;;;16.63;4.13;;;;;;;;;;4986360;28;20426;-77
2022/05/28 06:58:40;;;;;;;18.10;4.22;;;;;;;;;;4977588;28;20434;-77
2022/05/28 07:01:09;;;;;;;17.85;4.88;;;;;;;;;;4969969;28;20912;-77
2022/05/28 07:03:36;;;;;;;17.02;4.28;;;;;;;;;;4994832;28;20422;-77
2022/05/28 07:06:02;;;;;;;16.70;4.28;;;;;;;;;;4986727;28;20441;-77
2022/05/28 07:08:29;;;;;;;18.98;4.55;;;;;;;;;;4987923;28;20442;-77
2022/05/28 07:10:57;;;;;;;15.63;4.18;;;;;;;;;;4965965;28;20436;-76
2022/05/28 07:13:24;;;;;;;17.13;3.47;;;;;;;;;;4972784;28;20442;-78
2022/05/28 07:15:51;;;;;;;13.45;3.95;;;;;;;;;;4995085;28;20540;-78
2022/05/28 07:18:17;;;;;;;13.00;4.00;;;;;;;;;;4990445;28;20505;-78
2022/05/28 07:20:44;;;;;;;17.27;4.10;;;;;;;;;;4971381;28;20447;-77
2022/05/28 07:23:15;;;;;;;13.90;3.33;;;10.10;99.90;;;;;;4991008;28;20422;-79
2022/05/28 07:25:42;;;;;;;17.05;4.00;;;;;;;;;;4991757;28;20430;-79
2022/05/28 07:30:54;;;;;;;17.50;4.10;;;;;;;;;;4993985;28;20914;-78
2022/05/28 07:33:20;;;;;;;14.40;3.75;;;;;;;;;;4989043;28;20512;-77
2022/05/28 07:35:47;;;;;;;16.37;4.23;;;;;;;;;;4957494;28;20563;-79
2022/05/28 07:38:13;;;;;;;12.77;3.83;;;;;;;;;;4984474;28;20943;-78
2022/05/28 07:40:39;;;;;;;17.70;4.40;;;;;;;;;;4954855;28;20424;-74
2022/05/28 07:43:05;;;;;;;20.00;4.60;;;;;;;;;;4972738;28;20947;-73
2022/05/28 07:45:35;;;;;;;16.63;4.30;;;;;;;;;;4986783;28;20425;-74
2022/05/28 07:48:01;;;;;;;18.13;4.47;;;;;;;;;;4979488;28;20509;-74
2022/05/28 07:50:27;;;;;;;15.75;4.00;;;;;;;;;;4986000;28;20977;-74
2022/05/28 07:52:53;;;;;;;18.63;4.78;;;;;;;;;;4989768;28;20926;-74
2022/05/28 07:55:20;;;;;;;18.05;3.85;;;;;;;;;;4974990;28;20420;-73
2022/05/28 07:57:46;;;;;;;16.75;3.92;;;;;;;;;;4978026;28;20515;-74
2022/05/28 08:00:12;;;;;;;22.33;4.28;;;;;;;;;;4982611;28;20502;-75
2022/05/28 08:02:38;;;;;;;17.58;3.97;;;11.30;99.90;;;;;;4978330;28;20424;-74
2022/05/28 08:05:04;;;;;;;14.20;3.43;;;;;;;;;;4969626;28;20428;-73
2022/05/28 08:07:31;;;;;;;16.23;3.65;;;;;;;;;;4987747;28;20422;-73
2022/05/28 08:09:58;;;;;;;13.30;3.00;;;;;;;;;;4980817;28;20526;-74
2022/05/28 08:12:24;;;;;;;13.55;3.20;;;;;;;;;;4967357;28;20428;-74
2022/05/28 08:14:50;;;;;;;16.42;4.22;;;12.30;99.90;;;;;;4991292;28;20418;-73
2022/05/28 08:17:17;;;;;;;15.38;4.03;;;;;;;;;;4962884;28;20428;-74
2022/05/28 08:19:43;;;;;;;13.82;3.25;;;;;;;;;;4982370;28;20446;-73
2022/05/28 08:24:54;;;;;;;16.70;4.20;;;;;;;;;;4987327;28;20418;-73
2022/05/28 08:27:20;;;;;;;16.40;3.33;;;;;;;;;;4989889;28;20768;-74
2022/05/28 08:29:46;;;;;;;19.43;4.50;;;12.30;99.90;;;;;;4989567;28;20521;-74
2022/05/28 08:32:16;;;;;;;17.03;3.53;;;;;;;;;;4983608;28;20986;-74
2022/05/28 08:34:43;;;;;;;15.90;3.63;;;;;;;;;;4986214;28;20418;-74
2022/05/28 08:37:11;;;;;;;17.00;4.10;;;;;;;;;;4984982;28;20418;-74
2022/05/28 08:39:37;;;;;;;20.20;3.88;;;;;;;;;;4983603;28;20452;-73
2022/05/28 08:42:05;;;;;;;15.30;3.05;;;;;;;;;;4982353;28;20457;-72
2022/05/28 08:44:32;;;;;;;13.35;3.60;;;;;;;;;;4991204;28;20410;-72
2022/05/28 08:47:17;;;;;;;10.25;2.80;;;;;;;;;;4988011;28;21169;-72
2022/05/28 08:49:45;;;;;;;12.13;3.10;;;13.50;99.90;;;;;;4984408;28;20444;-72
2022/05/28 08:52:20;;;;;;;17.15;3.85;;;;;;;;;;4990903;28;20422;-73
2022/05/28 08:54:56;;;;;;;15.90;3.60;;;;;;;;;;4975368;28;20495;-73
2022/05/28 08:57:33;;;;;;;13.80;3.13;;;13.30;99.90;;;;;;4979717;28;20429;-73
2022/05/28 09:00:01;;;;;;;10.32;2.78;;;;;;;;;;4989038;28;20422;-73
2022/05/28 09:02:47;;;;;;;12.02;3.00;;;;;;;;;;4980677;28;20761;-73
2022/05/28 09:05:22;;;;;;;10.95;2.90;;;;;;;;;;4985351;28;20459;-73
2022/05/28 09:07:49;;;;;;;11.25;2.83;;;;;;;;;;4974744;28;21008;-73
2022/05/28 09:10:15;;;;;;;12.90;2.85;;;13.60;99.90;;;;;;4955972;28;20439;-73
2022/05/28 09:12:50;;;;;;;11.35;2.80;;;;;;;;;;4982347;28;22203;-72
2022/05/28 09:15:16;;;;;;;14.80;3.50;;;;;;;;;;4975500;28;20473;-73
2022/05/28 09:17:44;;;;;;;12.68;2.90;;;;;;;;;;4987424;28;20489;-73
2022/05/28 09:20:18;;;;;;;10.32;3.30;;;;;;;;;;4977542;28;20758;-74
2022/05/28 09:22:44;;;;;;;14.07;3.10;;;;;;;;;;4991199;28;20422;-73
2022/05/28 09:25:11;;;;;;;15.48;3.38;;;;;;;;;;4982567;28;20428;-74
2022/05/28 09:27:56;;;;;;;15.65;3.42;;;;;;;;;;4991787;28;20418;-73
2022/05/28 09:30:34;;;;;;;11.82;3.03;;;12.70;99.90;;;;;;4986196;28;20429;-73
2022/05/28 09:33:19;;;;;;;13.52;3.47;;;;;;;;;;4978997;28;21042;-73
2022/05/28 09:36:29;;;;;;;12.18;3.22;;;12.80;99.90;;;;;;4986669;28;20477;-73
2022/05/28 09:38:56;;;;;;;16.63;3.85;;;;;;;;;;5001710;28;20425;-73
2022/05/28 09:41:34;;;;;;;16.08;3.45;;;;;;;;;;4985018;28;20837;-74
2022/05/28 09:44:06;;;;;;;17.13;3.83;;;;;;;;;;4988163;28;20454;-73
2022/05/28 09:46:36;;;;;;;12.18;3.22;;;;;;;;;;4990931;28;20387;-74
2022/05/28 09:49:03;;;;;;;12.55;3.22;;;;;;;;;;4989098;28;20427;-74
2022/05/28 09:51:31;;;;;;;12.98;3.15;;;;;;;;;;4978130;28;20430;-72
2022/05/28 09:54:18;;;;;;;12.68;3.08;;;;;;;;;;4964334;28;20505;-73
2022/05/28 09:56:50;;;;;;;13.25;3.20;;;;;;;;;;4979080;28;20425;-73
2022/05/28 09:59:22;;;;;;;14.43;3.20;;;;;;;;;;4991546;28;20537;-72
2022/05/28 10:01:57;;;;;;;13.85;3.40;;;;;;;;;;4983840;28;20418;-74
2022/05/28 10:04:30;;;;;;;13.67;3.10;;;;;;;;;;4968535;28;20514;-74
2022/05/28 10:07:02;;;;;;;11.05;2.67;;;12.20;99.90;;;;;;4969065;28;20497;-73
2022/05/28 10:09:32;;;;;;;14.77;3.13;;;;;;;;;;4966289;28;20781;-74
2022/05/28 10:12:00;;;;;;;14.60;3.30;;;;;;;;;;4987628;28;20443;-73
2022/05/28 10:14:29;;;;;;;11.23;2.78;;;12.60;99.90;;;;;;4988752;28;20434;-73
2022/05/28 10:16:56;;;;;;;12.65;2.90;;;;;;;;;;4985876;28;20422;-72
2022/05/28 10:19:25;;;;;;;11.98;3.10;;;;;;;;;;4983450;28;20414;-73
2022/05/28 10:21:53;;;;;;;13.35;3.17;;;12.90;99.90;;;;;;4978026;28;20503;-73
2022/05/28 10:24:22;;;;;;;17.10;3.25;;;12.80;99.90;;;;;;4987067;28;20894;-72
2022/05/28 10:26:55;;;;;;;11.15;2.65;;;12.70;99.90;;;;;;4971383;28;21022;-74
2022/05/28 10:29:24;;;;;;;12.53;3.00;;;;;;;;;;4984624;28;20954;-73
2022/05/28 10:31:52;;;;;;;12.57;2.95;;;;;;;;;;4989460;28;20426;-73
2022/05/28 10:34:30;;;;;;;11.52;2.95;;;;;;;;;;4987860;28;20414;-74
2022/05/28 10:37:07;;;;;;;9.93;2.53;;;;;;;;;;4986392;28;20812;-73
2022/05/28 10:39:33;;;;;;;14.68;3.45;;;;;;;;;;4996065;28;20456;-74
2022/05/28 10:41:59;;;;;;;12.70;2.85;;;;;;;;;;4989989;28;21076;-73
2022/05/28 10:44:25;;;;;;;12.25;2.90;;;;;;;;;;4994968;28;20404;-73
2022/05/28 10:47:08;;;;;;;18.40;3.38;;;;;;;;;;4989379;28;20458;-74
2022/05/28 10:49:34;;;;;;;14.57;3.38;;;;;;;;;;4965210;28;20438;-74
2022/05/28 10:52:24;;;;;;;15.05;3.00;;;12.40;99.90;;;;;;4991925;28;20522;-75
2022/05/28 10:55:03;;;;;;;13.60;3.10;;;;;;;;;;4994276;28;20497;-75
2022/05/28 10:57:45;;;;;;;14.55;3.58;;;;;;;;;;4987722;28;20424;-74
2022/05/28 11:00:31;;;;;;;16.63;3.55;;;;;;;;;;4993817;28;20421;-75
2022/05/28 11:02:57;;;;;;;16.80;3.83;;;;;;;;;;4988324;28;20434;-74
2022/05/28 11:05:45;;;;;;;11.73;2.90;;;13.60;99.90;;;;;;4982187;28;20493;-74
2022/05/28 11:08:21;;;;;;;12.75;2.95;;;;;;;;;;4971980;28;20445;-73
2022/05/28 11:10:50;;;;;;;12.05;2.50;;;;;;;;;;4991756;28;20430;-74
2022/05/28 11:13:54;;;;;;;16.25;3.15;;;14.20;99.90;;;;;;4987489;28;20434;-74
2022/05/28 11:16:29;;;;;;;14.75;2.67;;;;;;;;;;4991376;28;20426;-74
2022/05/28 11:19:10;;;;;;;14.55;3.03;;;14.00;99.90;;;;;;4988854;28;20934;-73
2022/05/28 11:21:36;;;;;;;11.82;2.50;;;;;;;;;;4993890;28;20415;-73
2022/05/28 11:24:44;;;;;;;15.95;3.35;;;13.80;99.90;;;;;;4988410;28;20457;-73
2022/05/28 11:27:34;;;;;;;9.35;2.65;;;13.80;99.90;;;;;;4989698;28;20430;-72
2022/05/28 11:30:19;;;;;;;13.70;2.60;;;13.70;99.90;;;;;;4963125;28;20513;-73
2022/05/28 11:32:47;;;;;;;12.30;3.30;;;;;;;;;;4982126;28;20424;-72
2022/05/28 11:35:38;;;;;;;14.23;3.15;;;13.90;99.90;;;;;;4989426;28;20558;-72
2022/05/28 11:38:15;;;;;;;12.88;2.80;;;;;;;;;;4992484;28;20462;-73
2022/05/28 11:40:53;;;;;;;10.87;2.53;;;;;;;;;;4975699;28;20460;-72
2022/05/28 11:43:46;;;;;;;14.90;3.05;;;14.00;99.90;;;;;;4972132;28;20443;-73
2022/05/28 11:46:44;;;;;;;11.00;2.72;;;13.70;99.90;;;;;;4986436;28;20487;-73
2022/05/28 11:52:22;;;;;;;12.02;2.90;;;;;;;;;;4980750;28;20493;-73
2022/05/28 11:54:52;;;;;;;7.95;2.28;;;;;;;;;;4991955;28;20419;-73
2022/05/28 11:57:33;;;;;;;13.02;2.75;;;13.90;99.90;;;;;;4987520;28;20431;-73
2022/05/28 12:00:01;;;;;;;12.07;2.28;;;;;;;;;;4989384;28;20418;-73
2022/05/28 12:02:32;;;;;;;10.02;2.38;;;;;;;;;;4988038;28;20491;-74
2022/05/28 12:04:58;;;;;;;12.63;2.00;;;;;;;;;;4979847;28;20434;-73
2022/05/28 12:07:24;;;;;;;10.45;2.40;;;;;;;;;;4990666;28;20422;-73
2022/05/28 12:09:51;;;;;;;9.15;2.20;;;14.60;99.90;;;;;;4991349;28;20426;-73
2022/05/28 12:12:23;;;;;;;7.97;2.00;;;;;;;;;;4989680;28;20480;-73
2022/05/28 12:15:14;;;;;;;7.63;2.17;;;15.00;99.90;;;;;;4986932;28;20437;-73
2022/05/28 12:17:42;;;;;;;8.57;2.22;;;15.20;99.90;;;;;;4986040;28;20532;-73
2022/05/28 12:20:11;;;;;;;9.63;2.17;;;14.80;99.90;;;;;;4992139;28;20564;-73
2022/05/28 12:22:55;;;;;;;14.25;2.90;;;;;;;;;;4992155;28;20473;-74
2022/05/28 12:25:32;;;;;;;9.82;2.70;;;14.10;99.90;;;;;;4979125;28;20441;-74
2022/05/28 12:27:57;;;;;;;9.50;3.10;;;13.90;99.90;;;;;;4980070;28;20426;-74
2022/05/28 12:30:48;;;;;;;13.23;2.78;;;13.70;99.90;;;;;;4991526;28;20439;-74
2022/05/28 12:33:23;;;;;;;11.05;3.05;;;;;;;;;;4988198;28;20435;-74
2022/05/28 12:35:58;;;;;;;12.30;3.33;;;;;;;;;;4980077;28;20418;-74
2022/05/28 12:38:27;;;;;;;10.95;3.22;;;;;;;;;;4990560;28;20418;-74
2022/05/28 12:40:59;;;;;;;12.60;3.00;;;;;;;;;;4983302;28;20438;-74
2022/05/28 12:43:36;;;;;;;11.77;3.40;;;;;;;;;;4986237;28;20493;-74
2022/05/28 12:46:13;;;;;;;15.38;3.10;;;;;;;;;;4985601;28;20507;-73
2022/05/28 12:48:39;;;;;;;13.55;3.00;;;;;;;;;;4990410;28;20426;-74
2022/05/28 12:51:08;;;;;;;12.83;2.93;;;;;;;;;;4987120;28;20446;-74
2022/05/28 12:53:47;;;;;;;16.27;3.25;;;14.30;99.90;;;;;;4981937;28;20428;-74
2022/05/28 12:56:42;;;;;;;10.65;2.42;;;;;;;;;;4985981;28;20498;-74
2022/05/28 12:59:30;;;;;;;9.90;2.20;;;15.10;99.90;;;;;;4990072;28;20510;-74
2022/05/28 13:02:02;;;;;;;9.30;2.90;;;;;;;;;;4988894;28;20810;-73
2022/05/28 13:04:40;;;;;;;11.30;2.22;;;17.60;99.90;;;;;;4989056;28;20496;-74
2022/05/28 13:07:20;;;;;;;8.93;2.05;;;15.70;99.90;;;;;;4999681;28;20511;-73
2022/05/28 13:09:47;;;;;;;7.93;2.30;;;15.30;99.90;;;;;;4990523;28;20443;-73
2022/05/28 13:12:27;;;;;;;8.07;2.00;;;15.20;99.90;;;;;;4981148;28;20523;-73
2022/05/28 13:15:19;;;;;;;9.93;2.22;;;15.30;99.90;;;;;;4974958;28;20588;-73
2022/05/28 13:17:54;;;;;;;9.32;2.15;;;15.30;99.90;;;;;;4983377;28;20423;-72
2022/05/28 13:20:29;;;;;;;8.07;2.15;;;;;;;;;;4984445;28;20464;-73
2022/05/28 13:23:09;;;;;;;7.63;2.23;;;;;;;;;;4976970;28;21967;-74
2022/05/28 13:25:54;;;;;;;10.60;2.42;;;;;;;;;;4985910;28;20481;-73
2022/05/28 13:28:53;;;;;;;8.10;2.10;;;;;;;;;;4989099;28;20438;-74
2022/05/28 13:31:25;;;;;;;9.07;2.15;;;14.60;99.90;;;;;;4965173;28;20438;-73
2022/05/28 13:33:54;;;;;;;8.15;2.10;;;;;;;;;;4987568;28;20913;-73
2022/05/28 13:36:20;;;;;;;10.50;2.30;;;;;;;;;;4985291;28;20474;-73
2022/05/28 13:38:51;;;;;;;8.90;1.87;;;15.30;99.90;;;;;;4984106;28;20422;-73
2022/05/28 13:41:33;;;;;;;10.35;2.03;;;15.60;99.90;;;;;;4984207;28;20929;-73
2022/05/28 13:44:05;;;;;;;10.67;2.23;;;;;;;;;;4979014;28;20439;-73
2022/05/28 13:46:33;;;;;;;8.18;2.17;;;15.30;99.90;;;;;;4983006;28;20507;-73
2022/05/28 13:49:01;;;;;;;9.88;2.05;;;14.60;99.90;;;;;;4963439;28;20425;-74
2022/05/28 13:51:29;;;;;;;10.75;2.28;;;14.40;99.90;;;;;;4988524;28;20441;-74
2022/05/28 13:53:57;;;;;;;8.67;1.97;;;;;;;;;;4987489;28;20418;-73
2022/05/28 13:56:25;;;;;;;11.27;2.15;;;15.20;99.90;;;;;;4975070;28;20798;-74
2022/05/28 13:58:52;;;;;;;8.30;2.10;;;;;;;;;;4989937;28;20452;-73
2022/05/28 14:01:26;;;;;;;8.00;2.13;;;15.90;99.90;;;;;;4988933;28;20860;-72
2022/05/28 14:03:53;;;;;;;9.38;2.10;;;;;;;;;;4988846;28;20426;-73
2022/05/28 14:06:23;;;;;;;7.45;1.92;;;;;;;;;;4981963;28;20422;-74
2022/05/28 14:08:51;;;;;;;7.95;2.00;;;15.20;99.90;;;;;;4986510;28;22399;-74
2022/05/28 14:11:27;;;;;;;9.55;2.47;;;15.40;99.90;;;;;;4983891;28;20465;-74
2022/05/28 14:14:21;;;;;;;9.35;2.13;;;15.60;99.90;;;;;;4993197;28;20418;-73
2022/05/28 14:16:52;;;;;;;9.27;1.98;;;16.10;99.90;;;;;;4988495;28;20730;-72
2022/05/28 14:19:22;;;;;;;8.85;1.92;;;;;;;;;;4988804;28;20424;-73
2022/05/28 14:21:51;;;;;;;7.93;2.05;;;;;;;;;;4985892;28;21629;-74
2022/05/28 14:24:29;;;;;;;10.45;2.03;;;;;;;;;;4988234;28;20918;-74
2022/05/28 14:27:01;;;;;;;8.98;2.00;;;16.30;99.90;;;;;;4991441;28;20428;-74
2022/05/28 14:29:31;;;;;;;10.07;2.30;;;15.50;99.90;;;;;;4989643;28;20466;-74
2022/05/28 14:31:58;;;;;;;10.73;2.35;;;;;;;;;;4986501;28;20552;-75